Latest Weather Observations for Toolara

IDQ60801

Issued at 8:05 pm EST Monday 28 July 2014 (issued every 30 minutes, with the page automatically refreshed every 10 minutes)

About weather observations | Map of weather stations | Latest weather observations for QLD | Other Formats
Station Details ID: 040555 Name: TOOLARA (KELLY) Lat: -25.97 Lon: 152.86 Height: 143.0 m
Data from the previous 72 hours. | See also: Recent months at Toolara
Date/Time
EST
Temp
°C
App
Temp
°C
Dew
Point
Rel
Hum
%
Delta-T
°C
Wind Press
QNH
hPa
Press
MSL
hPa
Rain
since 9 am
mm
Dir
 
Spd
km/h
Gust
km/h
Spd
kts
Gust
kts
28/08:00pm 16.2 14.9 11.2 72 2.7 - 9 11 5 6 - - -
28/07:30pm 16.0 14.2 11.0 72 2.7 - 11 13 6 7 - - -
28/07:00pm 16.2 - 10.9 71 2.8 - - - - - - - -
28/06:30pm 16.3 - 11.0 71 2.9 - - - - - - - -
28/06:00pm 16.5 14.7 10.8 69 3.1 - 11 11 6 6 - - -
28/05:30pm 16.6 - 10.0 65 3.5 - - - - - - - -
28/05:00pm 17.9 - 9.3 57 4.5 - - - - - - - -
28/04:30pm 20.7 - 5.5 37 7.6 - - - - - - - -
28/04:00pm 22.1 - 5.9 35 8.2 - - - - - - - -
28/03:30pm 22.2 - 6.4 36 8.1 - - - - - - - -
28/03:00pm 22.1 - 5.9 35 8.2 - - - - - - - 0.0
28/02:30pm 22.0 - 5.8 35 8.2 - - - - - - - -
28/02:00pm 21.9 - 6.2 36 8.0 - - - - - - - -
28/01:30pm 21.6 - 7.8 41 7.2 - - - - - - - -
28/01:00pm 21.4 - 9.0 45 6.6 - - - - - - - -
28/12:30pm 21.2 - 9.1 46 6.5 - - - - - - - -
28/12:00pm 20.3 - 8.9 48 6.0 - - - - - - - -
28/11:30am 19.7 - 9.9 53 5.3 - - - - - - - -
28/11:00am 19.5 - 11.0 58 4.7 - - - - - - - -
28/10:30am 18.6 - 12.1 66 3.6 - - - - - - - -
28/10:00am 18.0 - 12.5 70 3.1 - - - - - - - -
28/09:30am 16.7 - 11.8 73 2.7 - - - - - - - -
28/09:00am 15.1 - 10.9 76 2.2 - - - - - - - 0.0
28/08:30am 13.9 - 9.7 76 2.2 - - - - - - - -
28/08:00am 13.2 - 9.3 77 2.0 - - - - - - - -
28/07:30am 12.3 - 8.8 79 1.8 - - - - - - - -
28/07:00am 12.4 - 8.5 77 2.0 - - - - - - - -
28/06:30am 12.5 10.1 8.8 78 1.9 - 11 13 6 7 - - -
28/06:00am 12.3 9.5 8.6 78 1.9 - 13 13 7 7 - - -
28/05:30am 12.3 - 8.6 78 1.9 - - - - - - - -
28/05:00am 12.6 - 8.9 78 1.9 - - - - - - - -
28/04:30am 13.0 - 9.3 78 1.9 - - - - - - - -
28/04:00am 12.8 - 9.1 78 1.9 - - - - - - - -
28/03:30am 12.9 - 9.4 79 1.8 - - - - - - - -
28/03:00am 13.2 - 9.5 78 1.9 - - - - - - - 0.0
28/02:30am 13.2 - 9.3 77 2.0 - - - - - - - -
28/02:00am 13.3 - 9.7 79 1.9 - - - - - - - -
28/01:30am 13.3 - 9.9 80 1.8 - - - - - - - -
28/01:00am 13.5 - 9.7 78 2.0 - - - - - - - -
28/12:30am 13.6 - 9.8 78 2.0 - - - - - - - -
28/12:00am 13.7 12.0 9.9 78 2.0 - 9 11 5 6 - - -
 
Date/Time
EST
Temp
°C
App
Temp
°C
Dew
Point
Rel
Hum
%
Delta-T
°C
Wind Press
QNH
hPa
Press
MSL
hPa
Rain
since 9 am
mm
Dir
 
Spd
km/h
Gust
km/h
Spd
kts
Gust
kts
27/11:30pm 14.1 - 9.9 76 2.2 - - - - - - - -
27/11:00pm 14.5 - 10.1 75 2.3 - - - - - - - -
27/10:30pm 14.6 - 10.0 74 2.4 - - - - - - - -
27/10:00pm 14.5 - 9.7 73 2.5 - - - - - - - -
27/09:30pm 15.0 - 10.2 73 2.5 - - - - - - - -
27/09:00pm 15.2 - 10.2 72 2.6 - - - - - - - 0.0
27/08:30pm 14.6 - 9.6 72 2.6 - - - - - - - -
27/08:00pm 14.9 - 9.3 69 2.9 - - - - - - - -
27/07:30pm 15.5 - 9.4 67 3.2 - - - - - - - -
27/07:00pm 15.8 - 9.5 66 3.3 - - - - - - - -
27/06:30pm 16.2 - 9.2 63 3.6 - - - - - - - -
27/06:00pm 16.4 - 8.9 61 3.9 - - - - - - - -
27/05:30pm 16.9 - 8.8 59 4.2 - - - - - - - -
27/05:00pm 18.3 - 8.0 51 5.3 - - - - - - - -
27/04:30pm 19.8 - 7.2 44 6.4 - - - - - - - -
27/04:00pm 22.3 - 4.4 31 8.8 - - - - - - - -
27/03:30pm 22.9 - 4.4 30 9.2 - - - - - - - -
27/03:00pm 23.2 - 4.7 30 9.2 - - - - - - - 0.0
27/02:30pm 23.2 - 5.1 31 9.1 - - - - - - - -
27/02:00pm 23.0 - 5.4 32 8.9 - - - - - - - -
27/01:30pm 23.2 - 6.5 34 8.6 - - - - - - - -
27/01:00pm 22.7 - 7.3 37 8.0 - - - - - - - -
27/12:30pm 22.2 - 10.4 47 6.5 - - - - - - - -
27/12:00pm 21.5 - 10.9 51 5.9 - - - - - - - -
27/11:30am 20.6 - 11.2 55 5.2 - - - - - - - -
27/11:00am 20.4 - 12.1 59 4.7 - - - - - - - -
27/10:30am 19.9 - 13.8 68 3.5 - - - - - - - -
27/10:00am 18.9 - 14.6 76 2.5 - - - - - - - -
27/09:30am 17.7 - 14.8 83 1.7 - - - - - - - -
27/09:00am 16.7 - 15.1 90 0.9 - - - - - - - 0.0
27/08:30am 15.6 - 15.0 96 0.3 - - - - - - - -
27/08:00am 15.4 - 15.2 99 0.1 - - - - - - - -
27/07:30am 14.1 - 13.9 99 0.1 - - - - - - - -
27/07:00am 13.8 - 13.6 99 0.1 - - - - - - - -
27/06:30am 14.1 - 13.9 99 0.1 - - - - - - - -
27/06:00am 14.3 - 14.1 99 0.1 - - - - - - - -
27/05:30am 14.4 - 14.2 99 0.1 - - - - - - - -
27/05:00am 14.4 - 14.2 99 0.1 - - - - - - - -
27/04:30am 14.2 - 14.0 99 0.1 - - - - - - - -
27/04:00am 14.3 - 14.1 99 0.1 - - - - - - - -
27/03:30am 14.8 - 14.6 99 0.1 - - - - - - - -
27/03:00am 14.8 - 14.6 99 0.1 - - - - - - - 0.0
27/02:30am 15.2 - 15.0 99 0.1 - - - - - - - -
27/02:00am 15.1 - 14.9 99 0.1 - - - - - - - -
27/01:30am 14.9 - 14.7 99 0.1 - - - - - - - -
27/01:00am 15.0 - 14.8 99 0.1 - - - - - - - -
27/12:30am 15.4 - 14.6 95 0.5 - - - - - - - -
27/12:00am 16.7 - 14.5 87 1.3 - - - - - - - -
 
Date/Time
EST
Temp
°C
App
Temp
°C
Dew
Point
Rel
Hum
%
Delta-T
°C
Wind Press
QNH
hPa
Press
MSL
hPa
Rain
since 9 am
mm
Dir
 
Spd
km/h
Gust
km/h
Spd
kts
Gust
kts
26/11:30pm 16.6 - 14.8 89 1.0 - - - - - - - -
26/11:00pm 16.6 - 14.8 89 1.0 - - - - - - - -
26/10:30pm 17.4 - 15.0 86 1.4 - - - - - - - -
26/10:00pm 17.2 - 14.8 86 1.4 - - - - - - - -
26/09:30pm 17.6 - 14.9 84 1.6 - - - - - - - -
26/09:00pm 17.5 - 15.0 85 1.5 - - - - - - - 0.0
26/08:30pm 17.2 - 15.0 87 1.3 - - - - - - - -
26/08:00pm 17.5 - 15.1 86 1.4 - - - - - - - -
26/07:30pm 17.5 - 15.3 87 1.3 - - - - - - - -
26/07:00pm 17.3 - 15.6 90 1.0 - - - - - - - -
26/06:30pm 17.4 - 15.9 91 0.9 - - - - - - - -
26/06:00pm 17.6 - 15.9 90 1.0 - - - - - - - -
26/05:30pm 17.9 - 15.3 85 1.5 - - - - - - - -
26/05:00pm 17.8 - 15.4 86 1.4 - - - - - - - -
26/04:30pm 18.2 - 14.7 80 2.0 - - - - - - - -
26/04:00pm 18.3 - 15.7 85 1.5 - - - - - - - -
26/03:30pm 18.6 - 14.9 79 2.2 - - - - - - - -
26/03:00pm 18.6 - 15.5 82 1.8 - - - - - - - 0.0
26/02:30pm 18.7 - 15.8 83 1.7 - - - - - - - -
26/02:00pm 18.9 - 15.8 82 1.8 - - - - - - - -
26/01:30pm 19.5 - 16.0 80 2.1 - - - - - - - -
26/01:00pm 19.7 - 15.6 77 2.4 - - - - - - - -
26/12:30pm 19.5 - 16.2 81 2.0 - - - - - - - -
26/12:00pm 19.3 - 16.3 83 1.8 - - - - - - - -
26/11:30am 19.2 - 16.2 83 1.8 - - - - - - - -
26/11:00am 18.7 - 16.1 85 1.6 - - - - - - - -
26/10:30am 17.8 - 15.6 87 1.3 - - - - - - - -
26/10:00am 17.4 - 14.9 85 1.5 - - - - - - - -
26/09:30am 17.4 - 14.9 85 1.5 - - - - - - - -
26/09:00am 16.5 - 14.0 85 1.4 - - - - - - - 0.0
26/08:30am 16.3 - 14.0 86 1.3 - - - - - - - -
26/08:00am 16.1 - 13.9 87 1.3 - - - - - - - -
26/07:30am 15.3 - 13.0 86 1.3 - - - - - - - -
26/07:00am 15.9 - 13.7 87 1.2 - - - - - - - -
26/06:30am 15.3 - 12.8 85 1.4 - - - - - - - -
26/06:00am 16.3 - 13.4 83 1.6 - - - - - - - -
26/05:30am 16.1 - 13.4 84 1.5 - - - - - - - -
26/05:00am 15.3 - 12.8 85 1.4 - - - - - - - -
26/04:30am 15.6 - 12.9 84 1.5 - - - - - - - -
26/04:00am 15.6 - 12.9 84 1.5 - - - - - - - -
26/03:30am 15.5 - 12.8 84 1.5 - - - - - - - -
26/03:00am 15.5 - 12.6 83 1.6 - - - - - - - 0.0
26/02:30am 16.2 - 12.7 80 1.9 - - - - - - - -
26/02:00am 16.2 - 12.7 80 1.9 - - - - - - - -
26/01:30am 16.3 - 12.8 80 2.0 - - - - - - - -
26/01:00am 16.2 - 12.7 80 1.9 - - - - - - - -
26/12:30am 16.4 - 12.9 80 2.0 - - - - - - - -
26/12:00am 16.5 - 12.8 79 2.1 - - - - - - - -
 
Date/Time
EST
Temp
°C
App
Temp
°C
Dew
Point
Rel
Hum
%
Delta-T
°C
Wind Press
QNH
hPa
Press
MSL
hPa
Rain
since 9 am
mm
Dir
 
Spd
km/h
Gust
km/h
Spd
kts
Gust
kts
25/11:30pm 16.7 - 13.0 79 2.1 - - - - - - - -
25/11:00pm 16.9 - 13.0 78 2.2 - - - - - - - -
25/10:30pm 17.1 - 13.2 78 2.2 - - - - - - - -
25/10:00pm 17.0 - 13.1 78 2.2 - - - - - - - -
25/09:30pm 16.8 - 12.9 78 2.2 - - - - - - - -
25/09:00pm 17.0 - 12.9 77 2.3 - - - - - - - 0.0
25/08:30pm 16.9 - 12.8 77 2.3 - - - - - - - -

Other Formats:

Comma delimited format used in spreadsheet applications
http://www.bom.gov.au/fwo/IDQ60801/IDQ60801.94558.axf

JavaScript Object Notation format (JSON) in row-major order
http://www.bom.gov.au/fwo/IDQ60801/IDQ60801.94558.json